Time;durP1;ratioP1;P1;durP2;ratioP2;P2;SDS_P1;SDS_P2;PMS_P1;PMS_P2;Temp;Humidity;BMP_temperature;BMP_pressure;BME280_temperature;BME280_humidity;BME280_pressure;Samples;Min_cycle;Max_cycle;Signal;HPM_P1;HPM_P2
2021/05/27 00:01:16;;;;;;;5.15;4.60;;;17.20;97.00;;;;;;5052613;28;20033;-89
2021/05/27 00:03:42;;;;;;;6.13;4.28;;;17.20;97.00;;;;;;5052547;28;20470;-89
2021/05/27 00:06:08;;;;;;;4.35;3.95;;;17.20;97.00;;;;;;5038723;28;20510;-89
2021/05/27 00:08:33;;;;;;;6.65;3.80;;;17.10;97.20;;;;;;5037049;28;20069;-89
2021/05/27 00:10:59;;;;;;;4.95;3.90;;;17.10;96.80;;;;;;5037207;28;20025;-89
2021/05/27 00:13:25;;;;;;;4.43;3.90;;;17.00;96.70;;;;;;5037846;28;20083;-89
2021/05/27 00:15:50;;;;;;;4.10;3.70;;;17.00;96.70;;;;;;5037461;28;20481;-89
2021/05/27 00:18:16;;;;;;;4.90;4.05;;;16.90;96.80;;;;;;5037227;28;20029;-89
2021/05/27 00:20:42;;;;;;;4.22;3.83;;;16.80;96.90;;;;;;5055274;28;20480;-89
2021/05/27 00:23:08;;;;;;;4.03;3.63;;;16.80;97.20;;;;;;5037156;28;20128;-89
2021/05/27 00:25:34;;;;;;;5.72;3.67;;;16.70;97.30;;;;;;5036541;28;20041;-89
2021/05/27 00:27:59;;;;;;;3.95;3.58;;;16.60;97.40;;;;;;5036871;28;20029;-89
2021/05/27 00:30:26;;;;;;;6.95;3.90;;;16.60;97.60;;;;;;5036918;28;20417;-89
2021/05/27 00:32:52;;;;;;;5.43;3.97;;;16.60;97.80;;;;;;5036007;28;20025;-89
2021/05/27 00:35:18;;;;;;;4.30;3.90;;;16.50;97.90;;;;;;5036650;28;20032;-89
2021/05/27 00:37:44;;;;;;;4.50;4.03;;;16.40;98.10;;;;;;5036869;28;20462;-89
2021/05/27 00:40:14;;;;;;;4.25;3.85;;;16.40;98.20;;;;;;5036252;28;20142;-89
2021/05/27 00:42:39;;;;;;;4.80;4.30;;;16.40;98.30;;;;;;5036673;28;20029;-88
2021/05/27 00:45:11;;;;;;;5.78;4.05;;;16.40;98.40;;;;;;5037530;28;20398;-89
2021/05/27 00:47:37;;;;;;;4.35;3.75;;;16.30;98.50;;;;;;5037397;28;20028;-89
2021/05/27 00:50:05;;;;;;;3.90;3.50;;;16.30;98.60;;;;;;5054700;28;20051;-89
2021/05/27 00:52:32;;;;;;;4.13;3.00;;;16.40;98.70;;;;;;5054827;28;20043;-89
2021/05/27 00:55:00;;;;;;;3.55;3.30;;;16.30;98.80;;;;;;5037036;28;20033;-89
2021/05/27 00:57:33;;;;;;;4.53;3.80;;;16.40;98.90;;;;;;5036786;28;20028;-89
2021/05/27 00:59:59;;;;;;;4.97;3.70;;;16.40;99.10;;;;;;5037797;28;20022;-89
2021/05/27 01:02:25;;;;;;;4.18;3.33;;;16.40;99.10;;;;;;5036469;28;20040;-89
2021/05/27 01:04:52;;;;;;;4.00;3.28;;;16.40;99.10;;;;;;5055324;28;20037;-89
2021/05/27 01:07:17;;;;;;;3.50;3.20;;;16.40;99.20;;;;;;5037587;28;20490;-89
2021/05/27 01:09:43;;;;;;;4.53;3.25;;;16.40;99.20;;;;;;5036048;28;20040;-89
2021/05/27 01:12:10;;;;;;;4.38;3.65;;;16.40;99.30;;;;;;5038066;28;20033;-89
2021/05/27 01:17:23;;;;;;;4.35;3.80;;;16.50;99.30;;;;;;5054207;28;20182;-89
2021/05/27 01:19:53;;;;;;;3.10;2.90;;;16.50;99.30;;;;;;5035874;28;20025;-89
2021/05/27 01:22:22;;;;;;;3.65;3.35;;;16.50;99.30;;;;;;5036210;28;20025;-89
2021/05/27 01:24:49;;;;;;;3.55;3.25;;;16.50;99.30;;;;;;5053947;28;20108;-89
2021/05/27 01:27:16;;;;;;;4.15;3.42;;;16.60;99.40;;;;;;5054110;28;20029;-89
2021/05/27 01:29:42;;;;;;;3.80;3.05;;;16.60;99.40;;;;;;5035821;28;20025;-89
2021/05/27 01:32:11;;;;;;;3.92;3.53;;;16.60;99.30;;;;;;5036437;28;20025;-89
2021/05/27 01:34:36;;;;;;;3.65;3.28;;;16.60;99.50;;;;;;5036243;28;20086;-89
2021/05/27 01:37:03;;;;;;;3.53;3.22;;;16.50;99.40;;;;;;5035837;28;20029;-89
2021/05/27 01:39:29;;;;;;;3.35;3.00;;;16.60;99.50;;;;;;5036270;28;20104;-89
2021/05/27 01:41:55;;;;;;;4.07;3.70;;;16.50;99.60;;;;;;5053914;28;20079;-89
2021/05/27 01:44:21;;;;;;;7.43;3.65;;;16.60;99.70;;;;;;5039323;28;20570;-89
2021/05/27 01:46:46;;;;;;;4.38;3.97;;;16.60;99.70;;;;;;5039828;28;20025;-89
2021/05/27 01:49:12;;;;;;;4.15;3.75;;;16.50;99.70;;;;;;5040159;28;20528;-89
2021/05/27 01:51:38;;;;;;;4.90;3.75;;;16.50;99.70;;;;;;5039019;28;20017;-89
2021/05/27 01:54:04;;;;;;;5.28;3.90;;;16.50;99.70;;;;;;5040604;28;20442;-89
2021/05/27 01:56:30;;;;;;;3.80;3.47;;;16.50;99.70;;;;;;5041584;28;20084;-89
2021/05/27 01:59:06;;;;;;;4.45;4.03;;;16.50;99.80;;;;;;5058297;28;20064;-89
2021/05/27 02:01:31;;;;;;;3.92;3.63;;;16.50;99.90;;;;;;5039426;28;20029;-89
2021/05/27 02:03:58;;;;;;;5.43;4.07;;;16.50;99.90;;;;;;5039326;28;20371;-89
2021/05/27 02:06:24;;;;;;;4.00;3.53;;;16.40;99.90;;;;;;5039422;28;20470;-89
2021/05/27 02:11:36;;;;;;;5.75;4.10;;;16.40;99.90;;;;;;5057720;28;20051;-89
2021/05/27 02:14:07;;;;;;;4.53;4.13;;;16.50;99.90;;;;;;5038545;23;20049;-85
2021/05/27 02:16:33;;;;;;;5.13;4.03;;;16.50;99.90;;;;;;5020029;28;20022;-86
2021/05/27 02:18:59;;;;;;;4.80;4.00;;;16.60;99.90;;;;;;5020194;28;20040;-86
2021/05/27 02:21:25;;;;;;;4.75;4.25;;;16.60;99.90;;;;;;5020066;28;20026;-86
2021/05/27 02:23:55;;;;;;;4.28;3.72;;;16.70;99.90;;;;;;5020220;28;20068;-86
2021/05/27 02:26:21;;;;;;;4.63;4.18;;;16.70;99.90;;;;;;5020134;28;20037;-86
2021/05/27 02:28:47;;;;;;;4.65;4.25;;;16.80;99.90;;;;;;5019728;28;20057;-86
2021/05/27 02:31:14;;;;;;;6.30;4.80;;;16.80;99.90;;;;;;5020133;28;20328;-87
2021/05/27 02:33:40;;;;;;;6.35;4.50;;;16.90;99.90;;;;;;5020106;28;20554;-88
2021/05/27 02:36:07;;;;;;;6.97;4.55;;;16.90;99.90;;;;;;5019748;28;20064;-87
2021/05/27 02:38:33;;;;;;;5.28;4.13;;;16.90;99.90;;;;;;5019871;28;20069;-88
2021/05/27 02:40:59;;;;;;;4.90;4.40;;;17.00;99.90;;;;;;5037275;28;20021;-87
2021/05/27 02:43:24;;;;;;;4.90;4.40;;;17.00;99.90;;;;;;5037152;28;20030;-87
2021/05/27 02:45:50;;;;;;;4.78;4.28;;;17.10;99.90;;;;;;5020029;28;20037;-88
2021/05/27 02:48:16;;;;;;;5.05;4.53;;;17.10;99.90;;;;;;5020549;28;20459;-88
2021/05/27 02:50:42;;;;;;;5.75;4.63;;;17.20;99.90;;;;;;5021071;28;20018;-88
2021/05/27 02:53:08;;;;;;;5.00;4.50;;;17.20;99.90;;;;;;5042180;28;20030;-87
2021/05/27 02:55:34;;;;;;;6.72;5.13;;;17.20;99.90;;;;;;5024629;28;20048;-88
2021/05/27 02:58:00;;;;;;;6.20;4.28;;;17.30;99.90;;;;;;5033089;28;20030;-85
2021/05/27 03:00:25;;;;;;;7.53;4.40;;;17.30;99.90;;;;;;5025396;28;20026;-88
2021/05/27 03:02:51;;;;;;;6.70;3.90;;;17.40;99.90;;;;;;5021417;28;20129;-88
2021/05/27 03:05:16;;;;;;;4.82;4.40;;;17.30;99.90;;;;;;5022853;28;20033;-88
2021/05/27 03:07:42;;;;;;;6.80;4.10;;;17.40;99.90;;;;;;5037368;28;20025;-87
2021/05/27 03:10:08;;;;;;;4.40;4.00;;;17.50;99.90;;;;;;5018328;28;20092;-88
2021/05/27 03:12:34;;;;;;;7.22;4.30;;;17.50;99.90;;;;;;5027570;28;20102;-87
2021/05/27 03:15:00;;;;;;;7.75;5.43;;;17.50;99.90;;;;;;5038792;28;20025;-88
2021/05/27 03:17:25;;;;;;;7.72;4.63;;;17.50;99.90;;;;;;5037857;28;20043;-88
2021/05/27 03:19:51;;;;;;;8.20;5.00;;;17.60;99.90;;;;;;5036782;28;20036;-85
2021/05/27 03:22:17;;;;;;;5.07;4.57;;;17.60;99.80;;;;;;5038270;28;20101;-86
2021/05/27 03:24:42;;;;;;;4.60;4.20;;;17.50;99.80;;;;;;5037262;28;20041;-87
2021/05/27 03:27:10;;;;;;;4.97;4.47;;;17.60;99.80;;;;;;5037046;28;20029;-87
2021/05/27 03:29:36;;;;;;;5.60;4.88;;;17.60;99.80;;;;;;5024150;28;20386;-88
2021/05/27 03:32:02;;;;;;;6.15;4.05;;;17.70;99.90;;;;;;5028240;28;20053;-87
2021/05/27 03:34:28;;;;;;;5.20;4.20;;;17.70;99.90;;;;;;5018467;28;20438;-87
2021/05/27 03:36:54;;;;;;;4.32;3.92;;;17.70;99.90;;;;;;5018569;28;20056;-87
2021/05/27 03:39:19;;;;;;;4.93;4.28;;;17.80;99.90;;;;;;5018974;28;20026;-88
2021/05/27 03:41:45;;;;;;;4.70;4.15;;;17.90;99.90;;;;;;5018468;28;20500;-87
2021/05/27 03:44:11;;;;;;;5.00;4.03;;;17.90;99.90;;;;;;5035862;28;20029;-87
2021/05/27 03:46:36;;;;;;;6.72;4.43;;;18.00;99.90;;;;;;5018132;28;20075;-87
2021/05/27 03:49:03;;;;;;;5.72;4.07;;;18.10;99.90;;;;;;5017870;28;20035;-87
2021/05/27 03:51:29;;;;;;;5.50;4.47;;;18.30;99.90;;;;;;5017962;28;20053;-87
2021/05/27 03:53:54;;;;;;;5.60;4.50;;;18.40;99.90;;;;;;5017571;28;20088;-88
2021/05/27 03:56:20;;;;;;;6.40;4.20;;;18.50;99.90;;;;;;5035975;28;20021;-88
2021/05/27 04:01:30;;;;;;;6.78;4.80;;;18.60;99.70;;;;;;5036501;28;20060;-87
2021/05/27 04:09:24;;;;;;;4.47;4.07;;;18.90;98.70;;;;;;5035901;28;20065;-88
2021/05/27 04:11:50;;;;;;;6.30;5.10;;;18.90;98.30;;;;;;5017505;28;20493;-88
2021/05/27 04:14:16;;;;;;;5.63;4.60;;;18.80;98.40;;;;;;5020793;28;20041;-88
2021/05/27 04:16:41;;;;;;;6.53;5.70;;;18.80;98.70;;;;;;5028181;28;20043;-87
2021/05/27 04:19:07;;;;;;;5.35;4.93;;;18.80;99.10;;;;;;5021723;28;20025;-87
2021/05/27 04:21:33;;;;;;;7.80;5.28;;;18.80;98.90;;;;;;5021833;28;20108;-87
2021/05/27 04:23:59;;;;;;;5.22;4.72;;;18.90;98.90;;;;;;5020071;28;20040;-87
2021/05/27 04:26:24;;;;;;;5.80;5.25;;;19.00;98.70;;;;;;5022069;28;20033;-88
2021/05/27 04:28:50;;;;;;;12.98;5.93;;;19.10;98.60;;;;;;5027460;28;20068;-88
2021/05/27 04:31:18;;;;;;;8.38;5.68;;;19.20;98.40;;;;;;5031413;28;20044;-87
2021/05/27 04:33:44;;;;;;;5.85;5.25;;;19.30;98.20;;;;;;5055969;28;20054;-87
2021/05/27 04:36:13;;;;;;;5.85;5.25;;;19.40;98.10;;;;;;5039531;28;20044;-87
2021/05/27 04:38:40;;;;;;;5.65;5.00;;;19.50;98.00;;;;;;5033987;28;20033;-88
2021/05/27 04:41:06;;;;;;;7.45;5.70;;;19.70;97.80;;;;;;5033787;28;20036;-87
2021/05/27 04:43:34;;;;;;;6.88;5.30;;;19.90;97.20;;;;;;5037342;28;20016;-88
2021/05/27 04:46:00;;;;;;;7.53;4.50;;;20.10;96.60;;;;;;5035399;28;20097;-89
2021/05/27 04:48:26;;;;;;;4.15;3.50;;;20.30;95.70;;;;;;5032385;28;20033;-87
2021/05/27 04:50:53;;;;;;;4.45;3.60;;;20.60;94.30;;;;;;5038445;28;20036;-87
2021/05/27 04:53:20;;;;;;;3.95;3.35;;;20.80;92.90;;;;;;5017312;28;20037;-87
2021/05/27 04:55:46;;;;;;;4.20;3.80;;;21.00;91.60;;;;;;5022878;28;20071;-88
2021/05/27 04:58:12;;;;;;;7.25;5.88;;;21.20;90.40;;;;;;5018336;28;20030;-86
2021/05/27 05:00:38;;;;;;;6.05;5.25;;;21.40;89.40;;;;;;5024185;28;20032;-87
2021/05/27 05:03:05;;;;;;;16.58;6.90;;;21.60;87.50;;;;;;5023930;28;20079;-89
2021/05/27 05:05:34;;;;;;;9.07;6.40;;;21.90;87.90;;;;;;5020773;28;20041;-89
2021/05/27 05:08:00;;;;;;;14.48;10.25;;;22.30;88.50;;;;;;5021656;28;20025;-88
2021/05/27 05:10:30;;;;;;;15.90;9.73;;;22.80;87.10;;;;;;5016537;28;20419;-87
2021/05/27 05:12:56;;;;;;;16.58;9.00;;;23.10;85.80;;;;;;5033241;28;20030;-87
2021/05/27 05:15:24;;;;;;;14.02;8.98;;;23.40;83.90;;;;;;5036832;28;20013;-88
2021/05/27 05:17:53;;;;;;;15.80;9.85;;;23.80;82.10;;;;;;5022571;28;20111;-88
2021/05/27 05:20:34;;;;;;;;;;;;;;;;;;;;;
2021/05/27 05:23:02;;;;;;;14.50;7.70;;;24.40;79.20;;;;;;5042017;28;20110;-88
2021/05/27 05:25:29;;;;;;;14.13;6.72;;;24.60;74.80;;;;;;5026883;28;20037;-88
2021/05/27 05:27:56;;;;;;;14.73;6.28;;;24.70;74.00;;;;;;5029964;28;20021;-90
2021/05/27 05:33:37;;;;;;;10.30;5.90;;;25.00;71.00;;;;;;5037488;28;20042;-92
2021/05/27 05:36:34;;;;;;;8.57;5.28;;;24.90;67.90;;;;;;5022166;28;20053;-92
2021/05/27 05:39:04;;;;;;;6.10;3.80;;;24.90;66.00;;;;;;5003202;28;20030;-90
2021/05/27 05:41:51;;;;;;;7.70;4.65;;;25.00;68.50;;;;;;5018929;28;20036;-92
2021/05/27 05:44:21;;;;;;;4.35;3.75;;;25.10;66.20;;;;;;5020000;28;20124;-92
2021/05/27 05:47:01;;;;;;;4.00;3.40;;;25.40;66.90;;;;;;5022945;28;20460;-94
2021/05/27 05:50:07;;;;;;;3.70;3.15;;;25.60;66.60;;;;;;5026049;28;20025;-91
2021/05/27 05:52:42;;;;;;;3.60;3.22;;;25.90;65.10;;;;;;5023263;28;20025;-92
2021/05/27 05:55:09;;;;;;;3.80;3.42;;;26.00;64.30;;;;;;5012749;28;20077;-90
2021/05/27 05:57:39;;;;;;;4.22;3.42;;;26.10;63.30;;;;;;5027619;28;20459;-89
2021/05/27 06:00:51;;;;;;;4.88;3.70;;;26.10;62.90;;;;;;5024195;28;20034;-92
2021/05/27 06:13:01;;;;;;;4.82;3.50;;;26.90;61.50;;;;;;5034119;28;20072;-89
2021/05/27 06:15:28;;;;;;;5.15;3.45;;;26.90;60.50;;;;;;5019338;28;20048;-88
2021/05/27 06:17:54;;;;;;;4.70;3.13;;;26.90;61.20;;;;;;5017401;28;20052;-89
2021/05/27 06:20:26;;;;;;;4.82;3.15;;;27.00;61.30;;;;;;5016074;28;20067;-89
2021/05/27 06:23:01;;;;;;;5.22;3.60;;;27.30;61.60;;;;;;5017277;28;20060;-90
2021/05/27 06:25:39;;;;;;;4.93;3.33;;;27.50;60.40;;;;;;5021487;28;20061;-91
2021/05/27 06:28:15;;;;;;;5.22;3.47;;;27.60;59.50;;;;;;5023327;28;20112;-94
2021/05/27 06:30:59;;;;;;;;;;;;;;;;;;;;;
2021/05/27 06:33:28;;;;;;;;;;;27.40;58.40;;;;;;5042607;28;20238;-94
2021/05/27 06:36:37;;;;;;;;;;;;;;;;;;;;;
2021/05/27 06:39:22;;;;;;;5.13;3.70;;;27.50;59.70;;;;;;5053885;28;20049;-89
2021/05/27 06:42:08;;;;;;;3.53;3.22;;;28.00;59.00;;;;;;5037559;28;20026;-90
2021/05/27 06:45:10;;;;;;;5.05;3.10;;;28.20;58.10;;;;;;5023673;28;20281;-92
2021/05/27 06:51:07;;;;;;;4.35;3.67;;;28.60;56.60;;;;;;4931105;29;20250;-91
2021/05/27 06:54:34;;;;;;;3.40;3.10;;;28.70;56.40;;;;;;4967976;28;20132;-89
2021/05/27 06:57:22;;;;;;;3.78;3.47;;;28.60;56.40;;;;;;4940762;28;20036;-92
2021/05/27 06:59:48;;;;;;;6.22;3.08;;;28.50;56.50;;;;;;4944986;29;20058;-91
2021/05/27 07:02:53;;;;;;;3.95;3.30;;;28.60;57.40;;;;;;4944308;28;20094;-94
2021/05/27 07:05:22;;;;;;;;;;;29.00;56.80;;;;;;5022256;28;20047;-93
2021/05/27 07:08:16;;;;;;;4.25;2.80;;;29.10;57.80;;;;;;5021936;28;19916;-92
2021/05/27 07:14:03;;;;;;;3.88;2.97;;;29.60;55.70;;;;;;5102947;22;20108;-90
2021/05/27 07:16:52;;;;;;;2.60;2.40;;;29.90;56.50;;;;;;5044541;28;20025;-92
2021/05/27 07:22:43;;;;;;;3.13;2.22;;;31.10;53.00;;;;;;5002262;28;20041;-90
2021/05/27 07:25:49;;;;;;;2.92;2.65;;;30.80;53.60;;;;;;5068189;22;20081;-91
2021/05/27 07:29:06;;;;;;;2.47;2.28;;;30.80;52.60;;;;;;5048283;28;20013;-91
2021/05/27 07:41:57;;;;;;;2.28;2.08;;;30.60;52.90;;;;;;4895538;28;20068;-90
2021/05/27 07:44:33;;;;;;;2.67;1.95;;;30.80;52.90;;;;;;4980498;28;20129;-90
2021/05/27 07:47:00;;;;;;;4.88;2.28;;;31.10;52.30;;;;;;5121452;22;20094;-91
2021/05/27 07:50:10;;;;;;;4.25;2.00;;;31.30;51.70;;;;;;5025126;28;20037;-88
2021/05/27 07:52:37;;;;;;;3.58;1.90;;;32.10;51.80;;;;;;5021662;28;20021;-91
2021/05/27 07:55:24;;;;;;;2.55;2.10;;;33.10;51.60;;;;;;5021828;28;20033;-92
2021/05/27 07:58:26;;;;;;;3.38;2.17;;;33.70;50.00;;;;;;5028306;28;20032;-90
2021/05/27 08:00:58;;;;;;;3.58;1.90;;;34.00;48.40;;;;;;5021269;28;20460;-91
2021/05/27 08:03:26;;;;;;;2.08;1.80;;;33.70;48.00;;;;;;5023690;28;20072;-90
2021/05/27 08:06:08;;;;;;;2.10;1.77;;;33.30;48.10;;;;;;5025823;28;20034;-91
2021/05/27 08:08:35;;;;;;;1.90;1.58;;;33.40;48.90;;;;;;5022303;28;20087;-91
2021/05/27 08:11:11;;;;;;;9.15;2.08;;;33.50;48.50;;;;;;5024445;28;20041;-91
2021/05/27 08:13:37;;;;;;;2.90;1.50;;;33.70;48.90;;;;;;5021185;28;20375;-90
2021/05/27 08:16:04;;;;;;;1.80;1.65;;;33.90;48.90;;;;;;5018389;28;20084;-90
2021/05/27 08:18:33;;;;;;;3.17;1.63;;;34.10;47.40;;;;;;5023827;28;20044;-92
2021/05/27 08:21:19;;;;;;;2.28;1.60;;;34.10;48.30;;;;;;5025365;28;20036;-92
2021/05/27 08:24:01;;;;;;;1.65;1.40;;;34.90;47.20;;;;;;5017164;28;20030;-92
2021/05/27 08:26:30;;;;;;;2.28;1.75;;;35.30;47.40;;;;;;5009980;28;20037;-93
2021/05/27 08:29:19;;;;;;;1.77;1.67;;;35.70;46.40;;;;;;5017857;28;20133;-92
2021/05/27 08:32:13;;;;;;;1.83;1.65;;;36.00;46.10;;;;;;5016069;28;20056;-92
2021/05/27 08:35:33;;;;;;;2.35;1.63;;;36.10;42.30;;;;;;4961700;28;20039;-92
2021/05/27 08:38:05;;;;;;;2.33;1.50;;;36.20;44.80;;;;;;4978829;28;20039;-91
2021/05/27 08:40:31;;;;;;;2.47;1.38;;;36.30;44.10;;;;;;4959837;28;20035;-90
2021/05/27 08:43:01;;;;;;;1.92;1.40;;;36.50;44.40;;;;;;4960530;28;20082;-87
2021/05/27 08:45:37;;;;;;;2.70;1.27;;;36.80;43.40;;;;;;4982511;28;20041;-88
2021/05/27 08:48:20;;;;;;;1.67;1.40;;;37.10;42.70;;;;;;5022767;28;20037;-91
2021/05/27 08:50:47;;;;;;;1.85;1.40;;;37.40;41.40;;;;;;5021785;28;20060;-91
2021/05/27 08:53:19;;;;;;;3.17;1.70;;;37.00;42.20;;;;;;5020428;28;20136;-89
2021/05/27 08:55:51;;;;;;;1.60;1.50;;;37.30;43.00;;;;;;5022221;28;20035;-90
2021/05/27 08:58:27;;;;;;;4.40;1.98;;;37.50;41.90;;;;;;5018893;28;20530;-87
2021/05/27 09:00:53;;;;;;;1.85;1.73;;;37.70;42.80;;;;;;5016351;28;20060;-89
2021/05/27 09:03:19;;;;;;;1.63;1.52;;;38.30;41.60;;;;;;5017157;28;20033;-88
2021/05/27 09:05:57;;;;;;;3.08;1.58;;;38.30;40.90;;;;;;5018833;28;20104;-90
2021/05/27 09:08:29;;;;;;;2.70;1.90;;;37.70;40.90;;;;;;5023653;28;20022;-88
2021/05/27 09:11:13;;;;;;;1.80;1.48;;;36.90;40.60;;;;;;5019364;28;20120;-88
2021/05/27 09:13:59;;;;;;;2.35;1.80;;;36.20;42.30;;;;;;5020069;28;20030;-90
2021/05/27 09:16:29;;;;;;;2.40;2.00;;;35.30;42.40;;;;;;5015878;28;20049;-89
2021/05/27 09:18:55;;;;;;;2.17;1.98;;;34.50;42.80;;;;;;5012807;28;20087;-88
2021/05/27 09:21:42;;;;;;;2.08;1.85;;;34.10;44.00;;;;;;5017987;28;20029;-91
2021/05/27 09:24:09;;;;;;;3.90;1.85;;;33.90;44.10;;;;;;5014268;28;20030;-89
2021/05/27 09:27:04;;;;;;;3.85;1.90;;;33.30;44.00;;;;;;5014235;28;20133;-88
2021/05/27 09:29:46;;;;;;;2.08;1.80;;;32.80;44.90;;;;;;5018119;28;20103;-88
2021/05/27 09:32:17;;;;;;;3.42;2.10;;;32.90;45.30;;;;;;5021411;28;20152;-90
2021/05/27 09:34:55;;;;;;;3.08;1.85;;;33.20;45.10;;;;;;5023486;28;20022;-88
2021/05/27 09:37:22;;;;;;;2.58;1.80;;;33.30;44.80;;;;;;5020750;28;20040;-87
2021/05/27 09:39:50;;;;;;;2.90;1.83;;;33.10;44.90;;;;;;5019703;28;20441;-91
2021/05/27 09:42:19;;;;;;;3.08;2.10;;;33.00;44.80;;;;;;5023014;28;20052;-92
2021/05/27 09:44:51;;;;;;;2.67;1.90;;;32.80;45.60;;;;;;5017970;28;20060;-90
2021/05/27 09:48:11;;;;;;;4.07;2.00;;;32.60;45.20;;;;;;5041424;28;20041;-93
2021/05/27 09:50:41;;;;;;;2.15;1.77;;;32.70;46.00;;;;;;5045507;28;20113;-90
2021/05/27 09:53:51;;;;;;;2.45;1.90;;;33.10;45.70;;;;;;5020421;28;20029;-91
2021/05/27 09:56:35;;;;;;;1.95;1.77;;;33.00;44.60;;;;;;5011401;28;20037;-90
2021/05/27 09:59:18;;;;;;;2.38;1.80;;;32.40;44.50;;;;;;5020554;28;20471;-91
2021/05/27 10:02:34;;;;;;;2.90;2.00;;;31.60;45.50;;;;;;5023289;28;20045;-92
2021/05/27 10:05:00;;;;;;;2.65;2.20;;;30.90;46.90;;;;;;5026061;28;20038;-91
2021/05/27 10:07:48;;;;;;;4.10;2.50;;;30.40;48.40;;;;;;5022423;28;20053;-89
2021/05/27 10:10:16;;;;;;;3.28;2.58;;;30.30;49.60;;;;;;5021405;28;20032;-89
2021/05/27 10:12:47;;;;;;;2.45;2.25;;;30.30;50.50;;;;;;5021938;28;20057;-88
2021/05/27 10:15:19;;;;;;;4.25;2.25;;;30.70;50.80;;;;;;5024040;28;20079;-90
2021/05/27 10:17:49;;;;;;;2.58;2.08;;;31.30;50.50;;;;;;5017772;28;20025;-88
2021/05/27 10:20:21;;;;;;;1.83;1.73;;;32.00;50.00;;;;;;5019057;28;20021;-87
2021/05/27 10:23:03;;;;;;;2.35;2.15;;;32.50;49.10;;;;;;5018133;28;20052;-93
2021/05/27 10:25:47;;;;;;;4.85;2.47;;;32.90;48.70;;;;;;5038576;28;20041;-91
2021/05/27 10:28:25;;;;;;;4.72;2.97;;;33.40;48.20;;;;;;5018844;28;20077;-89
2021/05/27 10:30:52;;;;;;;4.75;2.80;;;33.40;47.90;;;;;;5016653;28;20034;-91
2021/05/27 10:33:23;;;;;;;4.13;2.25;;;33.20;47.80;;;;;;5022832;28;20030;-91
2021/05/27 10:36:02;;;;;;;3.40;2.60;;;33.30;48.10;;;;;;5018184;28;20147;-89
2021/05/27 10:38:41;;;;;;;4.57;2.50;;;33.60;47.50;;;;;;5036719;28;20080;-91
2021/05/27 10:41:39;;;;;;;2.75;2.42;;;33.80;47.70;;;;;;5019624;28;20402;-90
2021/05/27 10:44:08;;;;;;;3.38;2.40;;;34.40;47.20;;;;;;4982505;28;20148;-88
2021/05/27 10:46:44;;;;;;;3.85;2.50;;;34.90;47.90;;;;;;5014484;28;20069;-88
2021/05/27 10:49:10;;;;;;;4.55;2.63;;;35.30;46.20;;;;;;5017940;28;20045;-87
2021/05/27 10:51:51;;;;;;;3.78;2.40;;;34.80;45.40;;;;;;5033932;28;20022;-89
2021/05/27 10:54:28;;;;;;;3.40;2.60;;;34.20;45.30;;;;;;5016457;28;20044;-86
2021/05/27 10:57:44;;;;;;;4.50;2.63;;;33.30;46.40;;;;;;5015971;28;20032;-88
2021/05/27 11:00:19;;;;;;;3.88;2.45;;;33.10;47.70;;;;;;4975405;28;20043;-91
2021/05/27 11:08:25;;;;;;;5.70;3.40;;;33.40;47.20;;;;;;5074544;28;20102;-85
2021/05/27 11:11:36;;;;;;;7.38;3.50;;;32.90;46.60;;;;;;5051592;28;20037;-86
2021/05/27 11:14:19;;;;;;;6.88;3.33;;;32.10;47.00;;;;;;4951883;29;20031;-88
2021/05/27 11:25:09;;;;;;;4.60;2.70;;;29.60;50.80;;;;;;5073830;28;20470;-86
2021/05/27 11:27:44;;;;;;;3.90;2.60;;;29.00;50.80;;;;;;5055721;28;20091;-86
2021/05/27 11:30:29;;;;;;;28.30;4.10;;;28.60;52.60;;;;;;5058748;28;20024;-87
2021/05/27 11:33:14;;;;;;;4.28;3.03;;;27.60;79.90;;;;;;5076864;28;20359;-87
2021/05/27 11:35:42;;;;;;;;;;;25.60;94.70;;;;;;5056373;28;20479;-87
2021/05/27 11:38:19;;;;;;;8.38;4.22;;;24.30;99.70;;;;;;5054924;28;20010;-86
2021/05/27 11:40:47;;;;;;;6.43;5.13;;;23.40;98.80;;;;;;5057296;28;20237;-85
2021/05/27 11:43:16;;;;;;;11.60;7.20;;;22.60;99.90;;;;;;5056851;28;20131;-86
2021/05/27 11:45:53;;;;;;;10.43;6.75;;;22.20;99.90;;;;;;5055267;28;20164;-87
2021/05/27 11:48:32;;;;;;;8.82;6.18;;;22.00;99.90;;;;;;5054877;28;20025;-86
2021/05/27 11:51:12;;;;;;;10.30;6.05;;;22.00;99.90;;;;;;5061502;28;20027;-87
2021/05/27 11:53:50;;;;;;;8.45;5.80;;;22.10;99.90;;;;;;5054336;28;20047;-86
2021/05/27 11:56:55;;;;;;;5.00;4.60;;;22.30;99.90;;;;;;5055120;28;20016;-86
2021/05/27 11:59:25;;;;;;;6.72;5.90;;;22.20;99.90;;;;;;5056135;28;20041;-87
2021/05/27 12:02:00;;;;;;;9.38;8.40;;;22.00;99.90;;;;;;5056489;28;20047;-87
2021/05/27 12:04:30;;;;;;;10.02;8.30;;;21.80;99.90;;;;;;5061168;28;20025;-87
2021/05/27 12:07:13;;;;;;;13.48;10.25;;;21.80;99.90;;;;;;5058178;28;20028;-88
2021/05/27 12:09:46;;;;;;;11.30;9.02;;;21.80;99.90;;;;;;5058950;28;20081;-88
2021/05/27 12:12:29;;;;;;;8.95;8.07;;;21.80;99.90;;;;;;5071001;28;20008;-89
2021/05/27 12:14:57;;;;;;;13.80;11.23;;;21.80;99.90;;;;;;5082283;28;20040;-87
2021/05/27 12:17:38;;;;;;;12.57;11.30;;;21.70;99.90;;;;;;5057438;28;20024;-87
2021/05/27 12:20:12;;;;;;;12.10;10.82;;;21.70;99.90;;;;;;5054711;28;20377;-90
2021/05/27 12:23:28;;;;;;;13.07;11.52;;;21.80;99.90;;;;;;5056721;28;20075;-90
2021/05/27 12:26:16;;;;;;;12.15;10.73;;;21.90;99.90;;;;;;5054580;28;20416;-89
2021/05/27 12:32:40;;;;;;;11.30;10.20;;;23.50;99.90;;;;;;5073751;28;20704;-89
2021/05/27 12:35:53;;;;;;;9.43;8.20;;;24.20;99.90;;;;;;5030960;28;20053;-89
2021/05/27 12:38:59;;;;;;;10.25;8.75;;;24.80;99.90;;;;;;5048521;28;20098;-90
2021/05/27 12:41:57;;;;;;;7.15;6.55;;;24.90;99.90;;;;;;5034991;28;20045;-90
2021/05/27 12:44:59;;;;;;;8.70;6.75;;;24.60;99.90;;;;;;4984156;28;20047;-89
2021/05/27 12:47:46;;;;;;;8.02;6.60;;;24.20;99.90;;;;;;5045635;28;20139;-90
2021/05/27 12:51:06;;;;;;;6.82;6.18;;;24.00;99.90;;;;;;5044731;28;20025;-92
2021/05/27 12:53:59;;;;;;;9.50;7.45;;;23.80;99.90;;;;;;4979834;28;20059;-92
2021/05/27 13:04:46;;;;;;;10.75;9.00;;;23.00;99.90;;;;;;5046076;28;20178;-88
2021/05/27 13:06:44;;;;;;;11.95;9.90;;;22.90;99.90;;;;;;5058170;28;20064;-89
2021/05/27 13:12:50;;;;;;;9.15;8.25;;;24.00;99.90;;;;;;5087919;28;20481;-89
2021/05/27 13:15:18;;;;;;;9.05;8.25;;;24.90;99.90;;;;;;5063264;28;20028;-90
2021/05/27 13:18:01;;;;;;;9.85;7.47;;;25.10;99.90;;;;;;5058957;28;20024;-89
2021/05/27 13:20:27;;;;;;;8.68;7.43;;;25.00;99.90;;;;;;5060562;28;20021;-89
2021/05/27 13:22:56;;;;;;;8.80;7.88;;;24.90;99.90;;;;;;5063025;28;20067;-91
2021/05/27 13:25:29;;;;;;;9.52;8.52;;;24.90;99.90;;;;;;5053262;28;20041;-91
2021/05/27 13:28:22;;;;;;;9.07;8.18;;;25.00;99.90;;;;;;5061805;28;20035;-92
2021/05/27 13:30:51;;;;;;;8.57;7.80;;;25.10;99.90;;;;;;5060536;28;20033;-92
2021/05/27 13:33:21;;;;;;;9.05;8.18;;;25.30;99.90;;;;;;5065325;28;20104;-91
2021/05/27 13:36:00;;;;;;;8.98;8.18;;;25.40;99.90;;;;;;5049069;28;20029;-91
2021/05/27 13:38:29;;;;;;;10.00;7.85;;;25.60;99.90;;;;;;5047516;28;20092;-90
2021/05/27 13:40:57;;;;;;;10.20;8.45;;;25.90;99.90;;;;;;5063607;28;20021;-92
2021/05/27 13:43:33;;;;;;;9.20;8.25;;;26.20;99.90;;;;;;5064263;28;20025;-92
2021/05/27 13:46:05;;;;;;;9.57;7.88;;;26.70;99.90;;;;;;5064433;28;20036;-92
2021/05/27 13:48:31;;;;;;;8.63;7.75;;;27.20;99.90;;;;;;5062169;28;20063;-90
2021/05/27 13:50:56;;;;;;;7.55;6.80;;;27.40;99.90;;;;;;5063903;28;20033;-91
2021/05/27 13:53:24;;;;;;;6.60;5.88;;;27.60;99.90;;;;;;5061472;28;20075;-89
2021/05/27 13:55:51;;;;;;;5.07;4.68;;;27.60;99.90;;;;;;5061143;28;20046;-88
2021/05/27 13:58:19;;;;;;;5.60;4.90;;;27.60;99.90;;;;;;5062821;28;20051;-88
2021/05/27 14:00:45;;;;;;;6.53;4.80;;;27.60;99.90;;;;;;5064533;28;20048;-88
2021/05/27 14:03:12;;;;;;;5.65;5.15;;;27.60;99.90;;;;;;5062733;28;20111;-88
2021/05/27 14:05:38;;;;;;;5.25;4.85;;;27.40;99.90;;;;;;5062984;28;20028;-89
2021/05/27 14:08:05;;;;;;;4.80;4.32;;;27.30;99.90;;;;;;5060293;28;20032;-87
2021/05/27 14:10:31;;;;;;;5.60;5.10;;;27.00;99.90;;;;;;5062381;28;20052;-88
2021/05/27 14:12:58;;;;;;;5.80;5.20;;;26.70;99.90;;;;;;5061955;28;20438;-87
2021/05/27 14:15:26;;;;;;;6.22;5.63;;;26.40;99.90;;;;;;5068325;28;20029;-87
2021/05/27 14:17:52;;;;;;;5.50;5.00;;;26.20;99.90;;;;;;5079408;28;20059;-88
2021/05/27 14:20:20;;;;;;;5.57;5.07;;;26.00;99.90;;;;;;5080575;28;20012;-86
2021/05/27 14:22:46;;;;;;;6.10;5.50;;;25.80;99.90;;;;;;5076332;28;20027;-87
2021/05/27 14:25:12;;;;;;;6.13;5.53;;;25.50;99.90;;;;;;5080625;28;20036;-86
2021/05/27 14:27:38;;;;;;;9.20;5.55;;;25.30;99.90;;;;;;5076513;28;20048;-86
2021/05/27 14:30:07;;;;;;;9.35;5.63;;;25.20;99.90;;;;;;5072300;28;20123;-87
2021/05/27 14:32:33;;;;;;;5.93;5.32;;;25.10;99.90;;;;;;5092076;28;20025;-87
2021/05/27 14:34:59;;;;;;;5.97;5.47;;;24.90;99.90;;;;;;5091774;28;20035;-87
2021/05/27 14:37:24;;;;;;;5.90;5.40;;;24.70;99.90;;;;;;5069702;28;20029;-87
2021/05/27 14:39:50;;;;;;;5.47;4.97;;;24.70;99.90;;;;;;5063729;28;20112;-87